Time;durP1;ratioP1;P1;durP2;ratioP2;P2;SDS_P1;SDS_P2;PMS_P1;PMS_P2;Temp;Humidity;BMP_temperature;BMP_pressure;BME280_temperature;BME280_humidity;BME280_pressure;Samples;Min_cycle;Max_cycle;Signal;HPM_P1;HPM_P2
2023/12/23 00:02:10;;;;;;;12.90;4.90;;;;;;;-0.08;81.62;96705.95;108244;1254;70824;-74
2023/12/23 00:04:37;;;;;;;22.20;8.40;;;;;;;-0.00;81.56;96700.38;107797;1259;71433;-75
2023/12/23 00:07:05;;;;;;;12.00;4.90;;;;;;;-0.01;81.31;96707.44;108164;1254;60324;-74
2023/12/23 00:09:32;;;;;;;16.50;5.90;;;;;;;-0.07;81.54;96719.95;108324;1254;59135;-75
2023/12/23 00:12:00;;;;;;;16.20;6.90;;;;;;;-0.01;81.65;96701.56;108440;1254;72581;-77
2023/12/23 00:14:27;;;;;;;16.80;7.00;;;;;;;0.07;81.44;96707.20;109017;1254;69107;-75
2023/12/23 00:16:55;;;;;;;14.50;6.00;;;;;;;0.06;81.47;96704.59;108940;1260;71380;-76
2023/12/23 00:19:22;;;;;;;15.00;5.20;;;;;;;0.02;81.65;96711.33;109051;1255;60472;-75
2023/12/23 00:21:54;;;;;;;21.30;7.70;;;;;;;0.10;81.64;96697.13;108777;1254;59168;-77
2023/12/23 00:24:24;;;;;;;14.90;7.10;;;;;;;0.18;81.23;96702.56;108535;1254;72784;-75
2023/12/23 00:26:53;;;;;;;21.10;8.20;;;;;;;0.16;81.44;96702.04;108382;1254;68896;-73
2023/12/23 00:29:21;;;;;;;15.30;5.10;;;;;;;0.15;81.43;96704.52;108316;1254;72029;-76
2023/12/23 00:31:48;;;;;;;19.10;7.80;;;;;;;0.26;81.18;96697.98;108593;1254;59566;-75
2023/12/23 00:34:16;;;;;;;20.20;6.70;;;;;;;0.26;80.98;96699.34;109099;1254;58734;-74
2023/12/23 00:36:45;;;;;;;14.70;5.30;;;;;;;0.24;81.16;96697.70;109286;1254;72560;-75
2023/12/23 00:39:12;;;;;;;16.20;5.50;;;;;;;0.33;81.17;96694.19;109335;1257;68977;-74
2023/12/23 00:41:41;;;;;;;12.80;5.00;;;;;;;0.39;80.53;96691.19;109315;1254;71080;-74
2023/12/23 00:44:08;;;;;;;11.30;4.40;;;;;;;0.36;80.64;96688.86;109230;1255;58365;-76
2023/12/23 00:46:36;;;;;;;10.70;4.50;;;;;;;0.38;81.04;96681.52;109065;1256;58746;-74
2023/12/23 00:49:04;;;;;;;18.00;7.10;;;;;;;0.50;80.78;96681.73;109085;1254;73112;-74
2023/12/23 00:51:31;;;;;;;14.10;4.80;;;;;;;0.54;80.40;96688.88;109271;1254;68725;-74
2023/12/23 00:53:59;;;;;;;26.90;10.10;;;;;;;0.50;80.30;96686.58;109273;1254;71420;-73
2023/12/23 00:56:26;;;;;;;15.00;5.70;;;;;;;0.48;80.36;96686.27;109292;1254;59811;-74
2023/12/23 00:58:54;;;;;;;15.30;4.20;;;;;;;0.58;80.42;96683.57;109195;1254;58303;-74
2023/12/23 01:01:21;;;;;;;8.70;4.10;;;;;;;0.63;80.23;96689.96;109295;1254;72659;-73
2023/12/23 01:03:49;;;;;;;11.60;5.00;;;;;;;0.60;80.18;96687.34;109271;1254;68688;-74
2023/12/23 01:06:16;;;;;;;13.60;6.00;;;;;;;0.65;80.30;96686.56;109289;1255;71321;-74
2023/12/23 01:08:44;;;;;;;9.80;4.70;;;;;;;0.74;79.98;96688.98;109237;1254;58431;-73
2023/12/23 01:11:11;;;;;;;9.20;4.90;;;;;;;0.70;79.49;96686.31;109186;1254;58625;-74
2023/12/23 01:13:39;;;;;;;12.00;5.60;;;;;;;0.66;79.55;96688.26;107149;1259;72695;-73
2023/12/23 01:16:07;;;;;;;19.70;6.00;;;;;;;0.69;79.58;96677.30;105798;1259;68700;-72
2023/12/23 01:18:34;;;;;;;11.40;4.50;;;;;;;0.76;79.89;96680.96;105632;1262;72719;-76
2023/12/23 01:21:04;;;;;;;11.70;5.70;;;;;;;0.70;79.51;96683.55;105658;1260;60521;-75
2023/12/23 01:23:31;;;;;;;8.90;4.60;;;;;;;0.64;79.74;96683.65;105874;1255;60304;-75
2023/12/23 01:25:59;;;;;;;8.20;4.80;;;;;;;0.67;79.94;96678.74;106110;1259;74544;-75
2023/12/23 01:28:26;;;;;;;10.80;4.70;;;;;;;0.70;79.48;96680.09;105887;1259;69952;-75
2023/12/23 01:30:54;;;;;;;11.70;5.60;;;;;;;0.67;79.81;96680.84;105750;1260;71432;-75
2023/12/23 01:33:21;;;;;;;9.00;4.80;;;;;;;0.61;80.14;96680.44;105971;1260;60607;-74
2023/12/23 01:35:49;;;;;;;7.30;4.10;;;;;;;0.63;80.33;96684.69;105886;1260;60479;-76
2023/12/23 01:38:17;;;;;;;9.20;4.20;;;;;;;0.69;80.11;96688.98;105739;1259;73807;-76
2023/12/23 01:40:44;;;;;;;8.20;3.60;;;;;;;0.62;80.20;96696.30;106824;1263;68699;-74
2023/12/23 01:43:12;;;;;;;8.80;4.40;;;;;;;0.63;80.36;96686.14;106817;1254;71845;-76
2023/12/23 01:45:39;;;;;;;11.80;5.20;;;;;;;0.70;80.49;96685.87;105990;1257;60496;-74
2023/12/23 01:48:07;;;;;;;7.90;4.40;;;;;;;0.67;80.60;96684.11;105889;1255;60435;-76
2023/12/23 01:50:35;;;;;;;11.80;4.60;;;;;;;0.60;80.63;96696.95;105854;1260;73912;-74
2023/12/23 01:53:02;;;;;;;12.00;4.70;;;;;;;0.59;80.95;96682.06;105743;1257;70118;-74
2023/12/23 01:55:31;;;;;;;8.20;4.60;;;;;;;0.67;80.79;96678.56;105829;1261;71546;-75
2023/12/23 01:57:59;;;;;;;10.40;5.10;;;;;;;0.62;80.93;96683.83;105841;1258;60544;-75
2023/12/23 02:00:26;;;;;;;9.00;4.30;;;;;;;0.53;81.21;96674.16;105792;1260;61081;-76
2023/12/23 02:02:54;;;;;;;8.80;4.40;;;;;;;0.58;81.30;96665.13;105649;1266;73847;-76
2023/12/23 02:05:22;;;;;;;6.30;3.50;;;;;;;0.63;81.30;96673.92;105858;1260;68818;-75
2023/12/23 02:07:50;;;;;;;9.90;4.40;;;;;;;0.61;81.47;96677.38;105937;1263;71087;-77
2023/12/23 02:10:17;;;;;;;7.90;3.60;;;;;;;0.52;81.76;96671.16;105795;1260;60635;-74
2023/12/23 02:12:57;;;;;;;8.90;4.30;;;;;;;0.56;82.09;96666.08;105625;1263;60453;-74
2023/12/23 02:15:38;;;;;;;12.30;4.90;;;;;;;0.58;82.11;96660.59;105838;1260;72638;-75
2023/12/23 02:18:05;;;;;;;8.60;4.50;;;;;;;0.49;82.36;96657.05;105884;1260;69209;-74
2023/12/23 02:20:34;;;;;;;8.20;3.90;;;;;;;0.47;82.78;96661.48;105912;1261;71303;-74
2023/12/23 02:23:01;;;;;;;11.80;4.60;;;;;;;0.52;82.72;96663.40;105748;1254;60898;-76
2023/12/23 02:25:29;;;;;;;6.90;3.40;;;;;;;0.48;82.68;96666.77;105855;1259;60537;-75
2023/12/23 02:27:59;;;;;;;8.40;3.30;;;;;;;0.39;82.97;96662.25;105825;1257;72896;-77
2023/12/23 02:30:26;;;;;;;7.40;3.40;;;;;;;0.41;83.07;96657.90;105831;1259;68299;-75
2023/12/23 02:32:54;;;;;;;6.30;3.10;;;;;;;0.46;82.93;96655.31;106022;1262;70571;-74
2023/12/23 02:35:26;;;;;;;7.00;3.60;;;;;;;0.45;82.99;96645.10;106749;1257;60457;-75
2023/12/23 02:37:55;;;;;;;6.60;3.60;;;;;;;0.36;83.38;96644.25;106677;1262;60408;-76
2023/12/23 02:40:23;;;;;;;7.90;4.10;;;;;;;0.40;83.58;96637.45;105876;1262;73781;-75
2023/12/23 02:42:50;;;;;;;7.70;3.90;;;;;;;0.43;83.55;96637.09;105884;1260;70070;-76
2023/12/23 02:45:18;;;;;;;8.50;3.40;;;;;;;0.32;83.76;96631.62;107118;1257;71602;-75
2023/12/23 02:47:47;;;;;;;7.30;3.10;;;;;;;0.27;84.23;96640.59;107069;1262;59645;-74
2023/12/23 02:50:15;;;;;;;10.60;5.20;;;;;;;0.30;84.12;96638.55;106742;1255;60413;-74
2023/12/23 02:52:43;;;;;;;12.40;7.70;;;;;;;0.33;83.95;96636.52;106612;1259;73896;-74
2023/12/23 02:55:10;;;;;;;9.90;4.60;;;;;;;0.27;84.16;96639.70;105983;1260;70104;-75
2023/12/23 02:57:38;;;;;;;7.90;4.60;;;;;;;0.24;84.42;96640.88;105944;1261;71265;-73
2023/12/23 03:00:06;;;;;;;10.20;4.10;;;;;;;0.26;84.58;96644.52;105825;1269;60516;-76
2023/12/23 03:02:35;;;;;;;8.10;4.20;;;;;;;0.21;84.75;96636.56;105742;1254;60479;-75
2023/12/23 03:05:03;;;;;;;15.10;7.90;;;;;;;0.15;85.09;96635.48;105681;1255;71996;-75
2023/12/23 03:07:31;;;;;;;15.20;8.20;;;;;;;0.20;85.28;96644.82;105670;1263;68076;-76
2023/12/23 03:10:01;;;;;;;12.30;6.30;;;;;;;0.21;85.44;96641.95;105699;1257;71799;-76
2023/12/23 03:12:28;;;;;;;9.10;3.50;;;;;;;0.13;85.63;96645.41;105711;1259;60532;-74
2023/12/23 03:14:55;;;;;;;6.50;3.30;;;;;;;0.14;85.75;96644.59;105723;1260;60541;-75
2023/12/23 03:17:25;;;;;;;9.10;4.30;;;;;;;0.19;85.60;96649.24;105746;1255;72566;-74
2023/12/23 03:19:56;;;;;;;8.70;3.90;;;;;;;0.20;85.57;96634.72;105734;1261;68918;-76
2023/12/23 03:22:24;;;;;;;14.90;5.10;;;;;;;0.14;85.85;96640.05;105635;1260;72695;-74
2023/12/23 03:24:51;;;;;;;9.80;3.80;;;;;;;0.18;85.96;96641.39;105651;1262;60894;-76
2023/12/23 03:27:19;;;;;;;7.90;3.90;;;;;;;0.22;85.91;96641.88;106385;1257;60496;-76
2023/12/23 03:29:47;;;;;;;10.00;3.90;;;;;;;0.15;86.06;96637.09;106757;1257;73753;-76
2023/12/23 03:32:15;;;;;;;8.10;3.50;;;;;;;0.16;86.07;96646.33;106181;1259;68840;-75
2023/12/23 03:34:43;;;;;;;8.30;3.60;;;;;;;0.21;85.97;96646.27;105952;1254;71043;-77
2023/12/23 03:37:11;;;;;;;7.60;3.60;;;;;;;0.20;85.83;96641.30;105674;1257;60533;-76
2023/12/23 03:39:38;;;;;;;11.90;4.10;;;;;;;0.13;86.13;96645.65;105677;1259;60465;-76
2023/12/23 03:42:06;;;;;;;6.70;3.90;;;;;;;0.15;86.20;96639.30;105741;1254;73791;-76
2023/12/23 03:44:33;;;;;;;7.40;4.00;;;;;;;0.19;86.04;96646.47;105730;1260;70103;-76
2023/12/23 03:47:01;;;;;;;10.90;4.40;;;;;;;0.18;85.91;96648.34;105636;1259;70699;-75
2023/12/23 03:49:28;;;;;;;7.60;3.40;;;;;;;0.12;86.18;96640.52;105551;1261;60552;-77
2023/12/23 03:51:56;;;;;;;8.40;3.80;;;;;;;0.16;86.09;96638.39;105738;1259;159663;-75
2023/12/23 03:55:49;;;;;;;11.50;4.40;;;;;;;0.26;86.03;96637.69;103354;1286;599506;-75
2023/12/23 03:58:16;;;;;;;6.60;3.70;;;;;;;0.19;85.94;96635.70;105101;1269;59321;-74
2023/12/23 04:00:44;;;;;;;8.70;3.10;;;;;;;0.17;86.27;96644.95;104818;1269;59293;-75
2023/12/23 04:03:12;;;;;;;9.90;4.10;;;;;;;0.24;86.26;96635.29;105076;1267;71261;-77
2023/12/23 04:05:39;;;;;;;6.50;3.40;;;;;;;0.24;86.14;96644.52;105176;1272;68922;-77
2023/12/23 04:08:08;;;;;;;7.60;3.40;;;;;;;0.17;86.30;96654.23;105178;1267;70477;-75
2023/12/23 04:10:35;;;;;;;7.80;3.50;;;;;;;0.16;86.49;96650.98;105171;1269;130126;-76
2023/12/23 04:13:03;;;;;;;7.20;3.40;;;;;;;0.22;86.46;96661.99;105161;1264;59179;-77
2023/12/23 04:15:30;;;;;;;6.50;3.80;;;;;;;0.20;86.47;96656.52;105968;1257;72486;-77
2023/12/23 04:17:58;;;;;;;7.80;3.10;;;;;;;0.14;86.90;96665.83;107132;1258;68975;-75
2023/12/23 04:20:26;;;;;;;7.10;3.40;;;;;;;0.21;86.82;96663.92;106691;1257;71372;-75
2023/12/23 04:22:54;;;;;;;8.60;3.50;;;;;;;0.26;86.72;96663.46;106407;1257;59337;-76
2023/12/23 04:25:21;;;;;;;5.30;3.00;;;;;;;0.20;86.75;96664.97;105834;1257;60088;-74
2023/12/23 04:27:51;;;;;;;6.00;3.30;;;;;;;0.17;87.08;96667.96;105625;1258;72910;-75
2023/12/23 04:30:20;;;;;;;8.50;4.20;;;;;;;0.23;87.09;96674.30;105530;1257;69488;-76
2023/12/23 04:32:48;;;;;;;8.20;4.00;;;;;;;0.23;87.20;96675.52;105485;1260;71169;-74
2023/12/23 04:35:16;;;;;;;7.80;3.70;;;;;;;0.14;87.42;96680.61;105468;1257;59883;-75
2023/12/23 04:37:44;;;;;;;9.00;4.20;;;;;;;0.14;87.67;96685.27;105467;1257;59746;-76
2023/12/23 04:40:13;;;;;;;7.10;4.00;;;;;;;0.19;87.63;96695.39;105544;1262;73048;-75
2023/12/23 04:42:40;;;;;;;6.30;3.50;;;;;;;0.15;87.79;96692.68;105674;1261;70742;-74
2023/12/23 04:45:09;;;;;;;43.60;26.40;;;;;;;0.14;87.95;96695.06;105806;1257;71107;-73
2023/12/23 04:47:37;;;;;;;7.10;4.00;;;;;;;0.18;87.89;96692.75;105690;1259;59733;-75
2023/12/23 04:50:06;;;;;;;7.80;4.10;;;;;;;0.12;88.15;96686.85;105601;1260;59592;-75
2023/12/23 04:52:34;;;;;;;8.40;4.20;;;;;;;0.13;88.18;96688.39;105740;1260;73167;-74
2023/12/23 04:55:05;;;;;;;8.00;4.30;;;;;;;0.17;88.08;96695.04;105667;1258;68810;-75
2023/12/23 04:57:34;;;;;;;6.50;4.00;;;;;;;0.12;88.41;96693.95;105680;1257;71377;-74
2023/12/23 05:00:05;;;;;;;10.40;4.80;;;;;;;0.08;88.76;96695.09;105687;1259;59736;-75
2023/12/23 05:02:33;;;;;;;9.00;4.10;;;;;;;0.14;88.71;96696.08;105843;1256;60696;-76
2023/12/23 05:05:01;;;;;;;7.80;4.40;;;;;;;0.15;88.83;96710.63;105596;1261;75364;-76
2023/12/23 05:07:30;;;;;;;9.20;4.20;;;;;;;0.09;89.17;96711.73;105872;1259;70917;-77
2023/12/23 05:09:57;;;;;;;10.20;4.90;;;;;;;0.10;89.23;96719.98;106671;1257;72535;-78
2023/12/23 05:12:25;;;;;;;9.30;4.20;;;;;;;0.16;89.11;96725.02;106574;1257;59285;-75
2023/12/23 05:14:52;;;;;;;12.20;4.80;;;;;;;0.13;89.15;96722.85;107749;1257;59621;-75
2023/12/23 05:17:19;;;;;;;7.80;3.50;;;;;;;0.06;89.56;96723.04;108538;1258;73034;-76
2023/12/23 05:19:48;;;;;;;10.10;4.10;;;;;;;0.08;89.41;96719.92;105947;1260;68976;-76
2023/12/23 05:22:15;;;;;;;9.50;5.00;;;;;;;0.14;89.38;96718.39;105849;1257;71709;-75
2023/12/23 05:24:46;;;;;;;11.50;5.00;;;;;;;0.11;89.51;96723.95;105753;1256;59685;-76
2023/12/23 05:27:14;;;;;;;8.90;4.60;;;;;;;0.10;89.69;96725.85;105687;1257;60007;-75
2023/12/23 05:29:42;;;;;;;12.00;5.60;;;;;;;0.14;89.66;96725.39;105662;1257;73074;-75
2023/12/23 05:32:09;;;;;;;11.60;4.40;;;;;;;0.09;89.78;96727.00;105618;1257;68874;-75
2023/12/23 05:34:37;;;;;;;6.10;4.00;;;;;;;0.04;90.06;96728.31;105697;1257;71446;-75
2023/12/23 05:37:04;;;;;;;9.10;5.70;;;;;;;0.09;90.06;96736.45;105610;1260;59734;-74
2023/12/23 05:39:32;;;;;;;7.10;4.10;;;;;;;0.10;89.94;96740.75;105633;1257;60003;-74
2023/12/23 05:41:59;;;;;;;10.40;4.90;;;;;;;0.04;90.12;96743.58;105678;1256;71700;-77
2023/12/23 05:44:27;;;;;;;8.00;4.10;;;;;;;0.06;90.15;96752.80;105639;1258;70202;-77
2023/12/23 05:46:55;;;;;;;10.00;5.30;;;;;;;0.12;90.01;96751.53;105696;1257;72572;-75
2023/12/23 05:49:22;;;;;;;9.90;4.70;;;;;;;0.09;90.21;96761.84;105763;1257;59686;-73
2023/12/23 05:51:53;;;;;;;10.30;4.90;;;;;;;0.05;90.22;96760.50;105644;1257;60047;-74
2023/12/23 05:54:20;;;;;;;7.70;4.40;;;;;;;0.11;89.88;96763.85;105767;1260;73195;-75
2023/12/23 05:56:48;;;;;;;8.50;4.20;;;;;;;0.12;89.83;96757.64;105556;1260;70172;-75
2023/12/23 05:59:15;;;;;;;10.80;5.30;;;;;;;0.08;89.87;96772.02;105677;1260;72626;-75
2023/12/23 06:01:43;;;;;;;13.20;4.90;;;;;;;0.09;89.84;96772.90;105734;1257;60908;-77
2023/12/23 06:04:10;;;;;;;10.40;4.90;;;;;;;0.16;89.49;96783.14;105677;1262;60129;-75
2023/12/23 06:06:38;;;;;;;10.60;4.90;;;;;;;0.17;89.25;96780.67;106529;1255;73119;-76
2023/12/23 06:09:06;;;;;;;11.30;5.90;;;;;;;0.12;89.31;96785.83;108586;1257;70557;-77
2023/12/23 06:11:34;;;;;;;15.20;6.70;;;;;;;0.12;89.33;96788.38;107737;1257;71464;-76
2023/12/23 06:14:02;;;;;;;17.90;7.40;;;;;;;0.20;88.96;96791.03;105825;1259;59709;-74
2023/12/23 06:16:30;;;;;;;12.50;5.70;;;;;;;0.21;88.79;96789.92;105904;1260;59618;-77
2023/12/23 06:18:57;;;;;;;14.90;6.70;;;;;;;0.15;89.03;96790.95;105740;1257;73196;-76
2023/12/23 06:21:26;;;;;;;14.40;6.80;;;;;;;0.18;88.75;96793.20;105722;1260;68966;-77
2023/12/23 06:23:54;;;;;;;18.80;8.60;;;;;;;0.24;88.52;96796.32;106111;1256;72407;-76
2023/12/23 06:26:21;;;;;;;15.10;8.10;;;;;;;0.23;88.26;96799.55;106801;1254;59698;-76
2023/12/23 06:28:49;;;;;;;13.50;6.80;;;;;;;0.18;88.13;96804.66;106578;1256;60176;-77
2023/12/23 06:31:16;;;;;;;15.60;7.30;;;;;;;0.22;88.10;96800.54;106672;1253;71130;-77
2023/12/23 06:33:44;;;;;;;14.60;6.60;;;;;;;0.29;87.95;96804.84;106755;1254;68737;-78
2023/12/23 06:36:11;;;;;;;13.90;7.00;;;;;;;0.27;87.94;96811.48;106606;1253;72493;-78
2023/12/23 06:38:39;;;;;;;17.90;8.40;;;;;;;0.23;88.18;96817.67;106487;1254;60195;-80
2023/12/23 06:41:06;;;;;;;17.50;8.70;;;;;;;0.27;87.95;96818.56;106045;1253;60216;-78
2023/12/23 06:43:34;;;;;;;20.40;9.10;;;;;;;0.34;87.62;96818.08;105993;1256;75118;-77
2023/12/23 06:46:18;;;;;;;;;;;;;;;0.29;87.56;96820.63;106211;1256;69421;-80
2023/12/23 06:48:45;;;;;;;14.20;6.70;;;;;;;0.27;87.57;96822.61;105911;1254;72455;-78
2023/12/23 06:51:13;;;;;;;11.70;6.30;;;;;;;0.34;87.31;96821.48;105968;1256;59743;-78
2023/12/23 06:53:41;;;;;;;14.60;8.40;;;;;;;0.34;87.00;96837.64;105963;1254;59735;-77
2023/12/23 06:56:08;;;;;;;21.40;11.50;;;;;;;0.29;87.03;96827.82;106056;1252;71939;-80
2023/12/23 06:58:36;;;;;;;14.00;5.70;;;;;;;0.29;87.29;96831.40;105924;1258;68885;-80
2023/12/23 07:01:04;;;;;;;14.30;6.30;;;;;;;0.37;86.76;96834.71;107773;1254;71432;-80
2023/12/23 07:03:32;;;;;;;12.10;6.50;;;;;;;0.36;86.61;96833.21;108827;1253;59806;-77
2023/12/23 07:05:59;;;;;;;12.80;6.40;;;;;;;0.30;86.75;96834.59;107073;1254;59682;-79
2023/12/23 07:08:27;;;;;;;18.50;7.00;;;;;;;0.33;87.07;96842.28;106235;1252;72103;-80
2023/12/23 07:10:55;;;;;;;13.60;6.40;;;;;;;0.39;86.85;96839.32;106099;1254;69179;-77
2023/12/23 07:13:22;;;;;;;8.60;5.10;;;;;;;0.37;86.77;96834.91;106096;1256;71570;-79
2023/12/23 07:15:50;;;;;;;10.60;4.80;;;;;;;0.31;86.93;96840.91;106048;1257;59720;-80
2023/12/23 07:18:17;;;;;;;11.60;6.10;;;;;;;0.31;86.39;96855.73;106095;1252;60169;-79
2023/12/23 07:20:46;;;;;;;12.40;6.00;;;;;;;0.39;86.00;96843.86;106112;1254;71589;-78
2023/12/23 07:23:14;;;;;;;13.10;5.50;;;;;;;0.37;86.00;96848.58;105847;1254;70082;-80
2023/12/23 07:25:41;;;;;;;10.80;5.30;;;;;;;0.29;86.10;96850.76;105970;1257;72644;-80
2023/12/23 07:28:09;;;;;;;10.40;4.80;;;;;;;0.32;86.07;96844.70;106270;1257;59642;-78
2023/12/23 07:30:44;;;;;;;13.80;6.80;;;;;;;0.38;85.94;96850.80;106164;1254;60155;-79
2023/12/23 07:33:13;;;;;;;11.90;5.80;;;;;;;0.35;86.03;96850.10;106140;1259;72778;-76
2023/12/23 07:35:41;;;;;;;14.30;6.20;;;;;;;0.31;86.08;96849.52;106473;1256;68725;-79
2023/12/23 07:38:08;;;;;;;13.60;6.00;;;;;;;0.37;86.41;96849.66;106291;1254;74965;-78
2023/12/23 07:40:36;;;;;;;12.20;6.40;;;;;;;0.44;86.29;96843.38;107056;1257;59661;-78
2023/12/23 07:43:04;;;;;;;16.50;6.40;;;;;;;0.41;86.47;96847.64;107326;1254;60014;-82
2023/12/23 07:45:32;;;;;;;16.90;7.80;;;;;;;0.40;86.00;96847.61;106850;1252;73700;-78
2023/12/23 07:48:00;;;;;;;19.80;10.90;;;;;;;0.49;85.98;96846.73;106047;1256;69959;-79
2023/12/23 07:50:28;;;;;;;15.40;6.80;;;;;;;0.56;85.96;96848.33;106211;1254;72970;-78
2023/12/23 07:52:55;;;;;;;11.40;5.90;;;;;;;0.56;85.87;96853.30;106102;1256;60523;-80
2023/12/23 07:55:24;;;;;;;14.10;5.90;;;;;;;0.56;85.71;96854.24;107466;1253;59971;-79
2023/12/23 07:57:55;;;;;;;13.10;5.80;;;;;;;0.63;85.02;96858.77;107758;1253;71896;-75
2023/12/23 08:00:23;;;;;;;14.40;6.40;;;;;;;0.75;84.43;96860.80;107501;1254;68752;-78
2023/12/23 08:02:50;;;;;;;11.80;5.20;;;;;;;0.78;84.03;96856.70;108449;1253;72728;-77
2023/12/23 08:05:18;;;;;;;16.80;7.50;;;;;;;0.75;83.91;96860.10;108621;1254;60424;-78
2023/12/23 08:07:46;;;;;;;15.40;5.80;;;;;;;0.77;83.62;96859.80;108309;1254;60308;-78
2023/12/23 08:10:14;;;;;;;16.40;7.50;;;;;;;0.90;82.98;96863.50;108316;1252;72609;-79
2023/12/23 08:12:41;;;;;;;12.50;5.20;;;;;;;0.95;82.97;96863.26;106541;1256;71001;-80
2023/12/23 08:15:09;;;;;;;10.60;4.70;;;;;;;0.98;82.73;96866.53;106177;1253;72655;-79
2023/12/23 08:17:37;;;;;;;14.80;6.10;;;;;;;1.04;82.55;96870.39;106003;1259;60297;-79
2023/12/23 08:20:05;;;;;;;12.60;5.20;;;;;;;1.18;81.48;96870.91;106097;1254;60504;-78
2023/12/23 08:22:33;;;;;;;12.00;5.70;;;;;;;1.27;80.63;96873.34;106231;1256;72570;-78
2023/12/23 08:25:02;;;;;;;13.30;5.80;;;;;;;1.25;80.42;96874.41;106143;1254;68379;-77
2023/12/23 08:27:29;;;;;;;13.60;5.10;;;;;;;1.23;80.53;96875.17;106183;1259;71465;-79
2023/12/23 08:29:56;;;;;;;7.90;4.00;;;;;;;1.24;80.66;96870.88;106302;1256;60425;-76
2023/12/23 08:32:24;;;;;;;10.90;4.40;;;;;;;1.35;79.92;96874.27;106355;1259;60525;-78
2023/12/23 08:34:52;;;;;;;10.00;4.70;;;;;;;1.36;79.10;96874.48;106175;1255;74145;-78
2023/12/23 08:37:20;;;;;;;13.60;5.10;;;;;;;1.32;78.95;96873.74;106459;1258;68936;-80
2023/12/23 08:39:50;;;;;;;14.00;6.20;;;;;;;1.29;79.42;96878.45;106400;1255;72787;-80
2023/12/23 08:42:17;;;;;;;11.40;5.20;;;;;;;1.30;79.03;96883.92;106262;1253;61343;-78
2023/12/23 08:44:47;;;;;;;12.70;5.00;;;;;;;1.41;78.75;96881.46;106146;1258;60338;-80
2023/12/23 08:47:15;;;;;;;12.20;5.70;;;;;;;1.41;77.76;96885.52;106392;1254;72603;-79
2023/12/23 08:49:43;;;;;;;12.10;6.10;;;;;;;1.31;77.93;96876.45;109027;1254;70500;-79
2023/12/23 08:52:10;;;;;;;11.60;5.40;;;;;;;1.26;78.18;96881.82;108994;1256;73500;-79
2023/12/23 08:54:38;;;;;;;11.40;4.70;;;;;;;1.33;78.40;96885.48;106198;1254;60475;-80
2023/12/23 08:57:09;;;;;;;13.20;6.20;;;;;;;1.44;78.34;96884.05;106212;1254;60361;-79
2023/12/23 08:59:36;;;;;;;8.30;4.60;;;;;;;1.43;77.85;96884.69;106238;1254;72676;-80
2023/12/23 09:02:04;;;;;;;12.50;5.40;;;;;;;1.38;77.78;96884.54;106886;1254;70646;-79
2023/12/23 09:04:33;;;;;;;10.00;5.30;;;;;;;1.36;77.79;96881.52;106173;1254;71441;-79
2023/12/23 09:07:00;;;;;;;10.40;4.50;;;;;;;1.48;77.80;96886.08;105876;1256;60527;-80
2023/12/23 09:09:28;;;;;;;9.70;4.90;;;;;;;1.59;77.28;96883.89;106004;1254;60360;-80
2023/12/23 09:11:55;;;;;;;9.00;4.90;;;;;;;1.62;77.03;96881.59;106031;1256;73886;-80
2023/12/23 09:14:23;;;;;;;10.10;4.90;;;;;;;1.62;76.37;96881.58;106056;1254;70413;-79
2023/12/23 09:16:51;;;;;;;9.30;4.40;;;;;;;1.63;76.20;96881.00;106015;1257;71213;-78
2023/12/23 09:19:18;;;;;;;10.90;4.40;;;;;;;1.69;76.53;96881.57;106125;1256;60427;-79
2023/12/23 09:21:46;;;;;;;9.30;4.30;;;;;;;1.81;74.98;96880.55;106074;1254;60507;-79
2023/12/23 09:24:14;;;;;;;10.10;4.20;;;;;;;1.74;74.31;96881.06;106091;1258;74104;-78
2023/12/23 09:26:42;;;;;;;11.10;4.90;;;;;;;1.64;74.59;96885.92;105896;1257;70332;-77
2023/12/23 09:29:09;;;;;;;8.40;4.70;;;;;;;1.56;74.80;96886.83;105712;1254;72579;-76
2023/12/23 09:31:38;;;;;;;8.20;3.90;;;;;;;1.50;74.68;96886.27;105882;1254;60595;-80
2023/12/23 09:34:05;;;;;;;8.20;4.30;;;;;;;1.55;74.82;96885.77;106033;1260;60349;-79
2023/12/23 09:36:33;;;;;;;9.80;4.90;;;;;;;1.60;74.55;96879.26;106338;1254;72655;-78
2023/12/23 09:39:00;;;;;;;8.70;4.50;;;;;;;1.57;74.45;96876.90;106410;1254;69010;-79
2023/12/23 09:41:28;;;;;;;8.40;4.80;;;;;;;1.53;74.54;96879.98;106274;1258;71513;-77
2023/12/23 09:43:55;;;;;;;9.60;5.40;;;;;;;1.52;74.56;96878.23;108233;1252;60471;-75
2023/12/23 09:46:23;;;;;;;9.80;4.20;;;;;;;1.52;74.66;96879.29;107490;1259;60519;-75
2023/12/23 09:48:51;;;;;;;8.80;4.50;;;;;;;1.64;74.53;96880.29;106226;1261;72571;-75
2023/12/23 09:51:19;;;;;;;7.10;4.40;;;;;;;1.70;74.40;96885.33;105980;1254;69966;-77
2023/12/23 09:53:47;;;;;;;10.90;5.20;;;;;;;1.64;74.65;96890.04;105683;1261;71182;-75
2023/12/23 09:56:15;;;;;;;9.90;5.00;;;;;;;1.58;75.22;96887.98;105975;1254;60539;-76
2023/12/23 09:58:42;;;;;;;8.40;4.30;;;;;;;1.53;75.86;96890.46;105986;1257;60530;-78
2023/12/23 10:01:10;;;;;;;10.30;3.90;;;;;;;1.55;76.32;96889.52;105963;1262;75117;-79
2023/12/23 10:03:38;;;;;;;8.80;4.10;;;;;;;1.66;75.61;96886.59;105939;1256;69006;-78
2023/12/23 10:06:07;;;;;;;8.30;4.10;;;;;;;1.68;75.76;96880.15;105952;1253;72681;-77
2023/12/23 10:08:35;;;;;;;11.60;4.70;;;;;;;1.68;76.14;96881.23;105814;1259;60338;-78
2023/12/23 10:11:02;;;;;;;9.70;4.80;;;;;;;1.68;75.49;96879.06;105846;1258;60335;-79
2023/12/23 10:13:30;;;;;;;10.40;4.00;;;;;;;1.67;74.88;96880.64;105909;1254;73089;-78
2023/12/23 10:15:57;;;;;;;9.50;3.70;;;;;;;1.70;74.59;96886.21;105917;1257;70297;-78
2023/12/23 10:18:25;;;;;;;7.50;3.90;;;;;;;1.77;74.60;96888.91;105915;1256;71606;-78
2023/12/23 10:20:53;;;;;;;7.50;4.00;;;;;;;1.75;74.74;96889.42;105846;1260;60428;-78
2023/12/23 10:23:20;;;;;;;7.60;3.90;;;;;;;1.72;73.78;96886.70;105862;1254;60444;-78
2023/12/23 10:25:50;;;;;;;11.10;4.60;;;;;;;1.67;73.62;96886.92;106024;1256;74154;-79
2023/12/23 10:28:19;;;;;;;7.10;4.00;;;;;;;1.64;73.99;96885.86;106105;1257;69651;-79
2023/12/23 10:30:48;;;;;;;8.70;4.10;;;;;;;1.76;73.61;96891.52;105919;1260;72736;-79
2023/12/23 10:33:19;;;;;;;8.20;3.80;;;;;;;1.80;73.17;96891.04;106251;1256;60533;-80
2023/12/23 10:35:48;;;;;;;8.70;4.00;;;;;;;1.73;73.33;96891.67;106577;1254;60337;-81
2023/12/23 10:38:20;;;;;;;7.30;4.70;;;;;;;1.65;73.32;96895.05;108892;1254;72748;-79
2023/12/23 10:41:11;;;;;;;13.60;6.00;;;;;;;1.59;73.68;96890.16;108726;1254;68859;-76
2023/12/23 10:43:39;;;;;;;11.40;4.70;;;;;;;1.59;74.10;96886.43;105994;1259;72398;-79
2023/12/23 10:46:10;;;;;;;12.50;5.80;;;;;;;1.74;74.10;96891.40;106009;1254;60460;-78
2023/12/23 10:48:37;;;;;;;10.10;4.90;;;;;;;1.82;73.87;96890.02;106235;1254;60546;-79
2023/12/23 10:51:05;;;;;;;6.20;3.90;;;;;;;1.83;73.58;96893.66;106146;1258;73761;-79
2023/12/23 10:53:36;;;;;;;8.10;4.60;;;;;;;1.80;73.01;96893.58;105806;1260;70491;-79
2023/12/23 10:56:04;;;;;;;8.30;4.00;;;;;;;1.72;72.51;96894.65;106063;1259;72619;-79
2023/12/23 10:58:32;;;;;;;8.50;4.00;;;;;;;1.65;72.69;96894.39;106118;1254;60450;-80
2023/12/23 11:00:59;;;;;;;8.00;4.10;;;;;;;1.61;73.39;96898.77;106211;1254;60453;-79
2023/12/23 11:03:27;;;;;;;6.20;3.50;;;;;;;1.66;74.67;96896.59;106000;1253;74420;-81
2023/12/23 11:05:55;;;;;;;10.20;4.20;;;;;;;1.60;75.60;96892.23;105952;1264;69001;-78
2023/12/23 11:08:23;;;;;;;9.00;4.20;;;;;;;1.48;76.49;96889.89;106175;1258;72502;-78
2023/12/23 11:10:51;;;;;;;7.90;4.10;;;;;;;1.37;77.27;96894.98;105793;1260;61534;-79
2023/12/23 11:13:19;;;;;;;7.00;3.20;;;;;;;1.29;77.90;96894.46;106019;1257;60339;-78
2023/12/23 11:15:47;;;;;;;6.10;3.50;;;;;;;1.35;78.25;96896.73;105724;1260;76049;-77
2023/12/23 11:18:15;;;;;;;9.40;4.30;;;;;;;1.41;78.29;96906.95;106082;1257;69426;-79
2023/12/23 11:20:47;;;;;;;8.40;4.50;;;;;;;1.34;78.69;96913.98;106321;1257;73337;-81
2023/12/23 11:23:33;;;;;;;6.60;3.80;;;;;;;1.25;79.96;96911.91;107693;1254;60437;-81
2023/12/23 11:26:02;;;;;;;6.90;4.00;;;;;;;1.07;81.41;96925.11;108664;1254;60370;-80
2023/12/23 11:28:36;;;;;;;7.60;3.90;;;;;;;0.97;83.34;96928.40;108123;1255;75071;-78
2023/12/23 11:31:05;;;;;;;8.30;4.60;;;;;;;0.88;84.18;96925.23;107398;1254;70007;-81
2023/12/23 11:33:36;;;;;;;6.30;4.00;;;;;;;0.72;85.22;96930.89;109046;1254;71268;-77
2023/12/23 11:36:05;;;;;;;8.40;3.90;;;;;;;0.59;86.27;96934.67;107652;1254;59290;-79